Terminal Aerodrome Forecast
Issued by NWS Charleston, SC

Home | Current Version | Previous Version | Text Only | Print | Product List | Glossary On
Versions: 1 2 3 4 5 6 7 8 9 10 11 12
414
FTUS42 KCHS 290520
TAFSAV
TAF
KSAV 290520Z 2906/3006 23008KT P6SM SKC
     FM291400 26010G15KT P6SM FEW050
     FM292200 21009KT P6SM FEW070=

USA.gov is the U.S. government's official web portal to all federal, state and local government web resources and services.